Time;durP1;ratioP1;P1;durP2;ratioP2;P2;SDS_P1;SDS_P2;PMS_P1;PMS_P2;Temp;Humidity;BMP_temperature;BMP_pressure;BME280_temperature;BME280_humidity;BME280_pressure;Samples;Min_cycle;Max_cycle;Signal;HPM_P1;HPM_P2
2022/03/30 00:01:02;;;;;;;44.28;25.80;;;11.20;99.90;;;11.46;68.99;100732.41;5072027;28;20399;-60
2022/03/30 00:03:31;;;;;;;47.53;25.70;;;11.20;99.90;;;11.53;68.56;100735.00;5072338;28;20555;-60
2022/03/30 00:05:59;;;;;;;40.10;25.75;;;11.40;99.90;;;11.42;68.70;100728.91;5071862;28;20367;-59
2022/03/30 00:08:28;;;;;;;49.55;25.75;;;11.30;99.90;;;11.35;68.77;100727.22;5071325;28;20391;-59
2022/03/30 00:10:56;;;;;;;48.08;25.35;;;11.20;99.90;;;11.23;68.78;100724.69;5071263;28;20071;-60
2022/03/30 00:13:26;;;;;;;46.40;26.10;;;11.10;99.90;;;11.13;68.86;100704.50;5071135;28;20513;-59
2022/03/30 00:15:55;;;;;;;44.92;25.38;;;11.10;99.90;;;11.25;68.84;100722.91;5071381;28;20082;-59
2022/03/30 00:18:23;;;;;;;47.40;25.73;;;11.00;99.90;;;11.24;68.88;100725.56;5071462;28;20048;-60
2022/03/30 00:20:52;;;;;;;50.65;26.13;;;11.00;99.90;;;11.26;68.82;100722.03;5071699;28;20478;-60
2022/03/30 00:23:20;;;;;;;45.65;25.35;;;11.10;99.90;;;11.22;69.19;100732.66;5072017;28;20124;-59
2022/03/30 00:25:49;;;;;;;41.83;24.98;;;11.10;99.90;;;11.14;68.95;100730.09;5073447;28;20079;-59
2022/03/30 00:28:17;;;;;;;49.05;24.95;;;11.00;99.90;;;11.10;69.28;100723.06;5075381;28;20052;-60
2022/03/30 00:30:48;;;;;;;43.13;24.60;;;10.90;99.90;;;10.96;69.15;100717.00;5107550;28;20044;-59
2022/03/30 00:33:17;;;;;;;46.47;24.77;;;10.80;99.90;;;10.89;69.82;100729.41;5074686;28;20410;-59
2022/03/30 00:35:46;;;;;;;47.58;25.73;;;10.70;99.90;;;10.95;69.49;100724.97;5074657;28;20315;-59
2022/03/30 00:38:14;;;;;;;46.72;25.50;;;10.70;99.90;;;10.77;69.39;100703.06;5074720;28;20048;-59
2022/03/30 00:40:43;;;;;;;43.72;25.23;;;10.70;99.90;;;10.86;69.86;100718.84;5074567;28;20127;-60
2022/03/30 00:43:12;;;;;;;43.28;25.13;;;10.70;99.90;;;10.89;69.75;100723.25;5075021;28;20052;-60
2022/03/30 00:45:40;;;;;;;42.60;24.73;;;10.70;99.90;;;10.86;69.71;100725.91;5074515;28;20072;-59
2022/03/30 00:48:10;;;;;;;43.63;24.77;;;10.70;99.90;;;10.85;69.51;100717.09;5074666;28;20135;-59
2022/03/30 00:50:39;;;;;;;45.80;24.70;;;10.70;99.90;;;10.81;69.59;100715.38;5074924;28;20139;-59
2022/03/30 00:53:07;;;;;;;44.53;23.48;;;10.60;99.90;;;10.57;70.02;100717.28;5074818;28;20131;-59
2022/03/30 00:55:36;;;;;;;47.28;24.70;;;10.50;99.90;;;10.69;69.82;100723.41;5074401;28;20074;-61
2022/03/30 00:58:08;;;;;;;43.10;25.13;;;10.50;99.90;;;10.59;69.73;100712.88;5074714;28;20040;-60
2022/03/30 01:00:36;;;;;;;45.90;25.90;;;10.50;99.90;;;10.47;70.46;100705.06;5074628;28;20109;-60
2022/03/30 01:03:05;;;;;;;44.95;24.90;;;10.40;99.90;;;10.51;70.63;100701.50;5074590;28;20044;-59
2022/03/30 01:05:35;;;;;;;48.88;24.70;;;10.30;99.90;;;10.21;70.48;100694.63;5074122;28;20044;-59
2022/03/30 01:08:05;;;;;;;44.97;26.23;;;10.20;99.90;;;10.14;71.67;100695.56;5074331;28;20071;-60
2022/03/30 01:10:33;;;;;;;50.60;25.23;;;10.00;99.90;;;10.04;71.76;100688.53;5074653;28;20098;-60
2022/03/30 01:13:05;;;;;;;46.00;25.88;;;9.90;99.90;;;10.21;71.79;100691.09;5074297;28;20045;-59
2022/03/30 01:15:35;;;;;;;46.65;25.33;;;10.00;99.90;;;9.35;72.19;100576.16;5074416;28;20040;-60
2022/03/30 01:18:03;;;;;;;53.92;25.50;;;9.90;99.90;;;10.16;72.03;100680.56;5106891;28;20454;-60
2022/03/30 01:20:32;;;;;;;47.92;25.30;;;9.90;99.90;;;10.12;71.86;100680.59;5074139;28;20044;-59
2022/03/30 01:23:03;;;;;;;50.10;25.55;;;9.90;99.90;;;10.09;71.83;100681.44;5073997;28;20466;-59
2022/03/30 01:25:33;;;;;;;44.15;25.25;;;9.90;99.90;;;10.17;71.82;100673.50;5074428;28;20123;-59
2022/03/30 01:28:01;;;;;;;45.65;26.38;;;9.90;99.90;;;9.82;72.36;100671.91;5074076;28;20450;-59
2022/03/30 01:33:16;;;;;;;44.70;25.23;;;9.70;99.90;;;9.59;72.90;100664.97;5073911;28;20067;-60
2022/03/30 01:35:44;;;;;;;54.67;26.73;;;9.50;99.90;;;9.79;72.82;100671.91;5073975;28;20147;-59
2022/03/30 01:38:14;;;;;;;45.17;24.70;;;9.60;99.90;;;9.96;73.21;100680.66;5073834;28;20047;-59
2022/03/30 01:40:42;;;;;;;48.67;25.33;;;9.70;99.90;;;9.91;72.63;100663.91;5073563;28;20072;-59
2022/03/30 01:43:11;;;;;;;46.60;25.90;;;9.70;99.90;;;9.88;73.11;100661.31;5073800;28;20499;-60
2022/03/30 01:45:40;;;;;;;45.47;26.00;;;9.70;99.90;;;9.84;72.86;100661.31;5072367;28;20048;-59
2022/03/30 01:48:08;;;;;;;49.33;26.42;;;9.70;99.90;;;9.87;72.86;100670.09;5073633;28;20041;-59
2022/03/30 01:50:37;;;;;;;44.05;24.55;;;9.70;99.90;;;9.89;72.51;100670.13;5073606;28;20181;-60
2022/03/30 01:53:05;;;;;;;43.40;24.92;;;9.70;99.90;;;9.96;72.42;100670.06;5073193;28;20119;-59
2022/03/30 01:55:36;;;;;;;46.05;25.48;;;9.80;99.90;;;10.04;72.37;100668.25;5073368;28;20135;-59
2022/03/30 01:58:05;;;;;;;48.60;25.40;;;9.80;99.90;;;10.11;72.36;100665.59;5073243;28;20134;-59
2022/03/30 02:00:33;;;;;;;44.33;25.63;;;9.90;99.90;;;9.41;72.23;100546.22;5073026;28;20040;-59
2022/03/30 02:03:02;;;;;;;46.47;25.63;;;9.90;99.90;;;9.98;72.04;100660.38;5073020;28;20434;-60
2022/03/30 02:05:32;;;;;;;40.50;23.58;;;9.80;99.90;;;9.91;71.85;100655.16;5073657;28;20060;-59
2022/03/30 02:08:00;;;;;;;44.92;24.15;;;9.80;99.90;;;9.83;71.82;100647.22;5073395;28;20123;-60
2022/03/30 02:10:29;;;;;;;39.95;23.10;;;9.70;99.90;;;9.84;72.29;100645.47;5073110;28;20102;-60
2022/03/30 02:12:59;;;;;;;46.90;24.50;;;9.70;99.90;;;9.85;72.27;100658.66;5073096;28;20283;-60
2022/03/30 02:15:29;;;;;;;42.92;23.50;;;9.70;99.90;;;9.66;72.17;100622.66;5071581;28;20072;-60
2022/03/30 02:17:59;;;;;;;46.33;25.00;;;9.70;99.90;;;9.80;72.04;100649.00;5072817;28;20032;-59
2022/03/30 02:20:27;;;;;;;49.60;26.67;;;9.60;99.90;;;9.84;72.23;100643.72;5073026;28;20048;-59
2022/03/30 02:22:55;;;;;;;47.97;24.35;;;9.70;99.90;;;9.78;72.10;100634.94;5073201;28;20497;-60
2022/03/30 02:25:24;;;;;;;41.75;24.55;;;9.60;99.90;;;9.75;72.24;100633.22;5072623;28;20045;-59
2022/03/30 02:27:52;;;;;;;42.08;24.95;;;9.60;99.90;;;9.46;72.55;100613.97;5072644;28;20490;-59
2022/03/30 02:30:22;;;;;;;48.20;25.15;;;9.50;99.90;;;9.64;72.83;100629.72;5072407;28;20044;-59
2022/03/30 02:32:51;;;;;;;41.03;24.05;;;9.40;99.90;;;9.69;72.75;100625.31;5072836;28;20048;-60
2022/03/30 02:35:19;;;;;;;43.90;23.52;;;9.50;99.90;;;9.64;72.50;100628.88;5072315;28;20071;-60
2022/03/30 02:37:49;;;;;;;50.30;26.15;;;9.50;99.90;;;9.60;72.91;100627.13;5072438;28;20498;-59
2022/03/30 02:40:17;;;;;;;46.25;24.35;;;9.40;99.90;;;9.53;73.25;100609.53;5072688;28;20083;-59
2022/03/30 02:42:45;;;;;;;44.95;24.88;;;9.40;99.90;;;9.59;72.70;100614.78;5072387;28;20114;-60
2022/03/30 02:45:14;;;;;;;45.80;24.45;;;9.40;99.90;;;9.58;72.95;100619.19;5072356;28;20060;-59
2022/03/30 02:50:29;;;;;;;45.17;25.33;;;9.30;99.90;;;9.66;72.51;100614.75;5072604;28;20049;-59
2022/03/30 02:52:58;;;;;;;48.33;25.33;;;9.50;99.90;;;9.57;73.17;100601.59;5072608;28;20117;-59
2022/03/30 02:55:26;;;;;;;47.80;25.13;;;9.40;99.90;;;9.58;72.89;100605.13;5071313;28;20158;-60
2022/03/30 02:57:54;;;;;;;53.58;25.92;;;9.40;99.90;;;9.46;73.26;100599.91;5072399;28;20048;-59
2022/03/30 03:00:23;;;;;;;50.15;26.42;;;9.30;99.90;;;9.53;72.97;100609.53;5072162;28;20139;-59
2022/03/30 03:02:52;;;;;;;48.40;25.80;;;9.30;99.90;;;9.55;72.85;100592.81;5072250;28;20040;-60
2022/03/30 03:05:21;;;;;;;45.50;24.73;;;9.40;99.90;;;9.58;73.27;100605.97;5071978;28;20102;-60
2022/03/30 03:07:50;;;;;;;48.30;25.42;;;9.40;99.90;;;9.53;73.14;100593.69;5071963;28;20128;-59
2022/03/30 03:10:18;;;;;;;45.63;26.13;;;9.40;99.90;;;9.51;73.39;100603.38;5071885;28;20507;-59
2022/03/30 03:12:46;;;;;;;51.55;25.58;;;9.30;99.90;;;9.47;73.22;100597.25;5071880;28;20060;-60
2022/03/30 03:15:15;;;;;;;51.13;25.70;;;9.30;99.90;;;9.51;72.93;100598.09;5071696;28;20041;-59
2022/03/30 03:17:43;;;;;;;51.08;25.65;;;9.30;99.90;;;9.39;73.06;100601.66;5071790;28;20127;-60
2022/03/30 03:20:13;;;;;;;40.60;23.98;;;9.30;99.90;;;9.49;73.43;100595.47;5071767;28;20512;-59
2022/03/30 03:22:42;;;;;;;56.28;26.17;;;9.30;99.90;;;9.42;73.00;100582.31;5071678;28;20118;-59
2022/03/30 03:25:12;;;;;;;46.20;26.20;;;9.30;99.90;;;9.60;72.90;100612.13;5071623;28;20040;-59
2022/03/30 03:27:41;;;;;;;50.08;26.70;;;9.40;99.90;;;9.59;72.59;100606.88;5071749;28;20049;-59
2022/03/30 03:30:13;;;;;;;42.50;25.35;;;9.40;99.90;;;9.53;72.94;100605.13;5071596;28;20149;-59
2022/03/30 03:32:42;;;;;;;49.65;25.85;;;9.40;99.90;;;9.50;72.66;100601.63;5071836;28;20041;-59
2022/03/30 03:35:13;;;;;;;48.10;26.83;;;9.40;99.90;;;9.44;72.77;100594.63;5071462;28;20052;-59
2022/03/30 03:37:43;;;;;;;43.97;24.85;;;9.30;99.90;;;9.52;72.27;100599.88;5071863;28;20049;-60
2022/03/30 03:40:13;;;;;;;49.53;25.08;;;9.30;99.90;;;9.52;72.10;100597.22;5071667;28;20417;-59
2022/03/30 03:42:41;;;;;;;45.88;23.45;;;9.30;99.90;;;9.49;72.37;100592.84;5071775;28;20049;-60
2022/03/30 03:45:10;;;;;;;49.67;24.73;;;9.30;99.90;;;9.50;72.23;100594.59;5072044;28;20048;-60
2022/03/30 03:47:41;;;;;;;44.45;24.70;;;9.30;99.90;;;9.47;72.51;100589.31;5071511;28;20036;-59
2022/03/30 03:50:10;;;;;;;;;;;9.30;99.90;;;9.37;72.25;100565.63;5071977;28;20048;-60
2022/03/30 03:52:40;;;;;;;47.45;24.23;;;9.40;99.90;;;9.44;72.45;100578.78;5071422;28;20343;-59
2022/03/30 03:55:09;;;;;;;45.42;25.30;;;9.30;99.90;;;9.32;72.45;100559.47;5070258;28;20057;-59
2022/03/30 03:57:40;;;;;;;42.55;23.85;;;9.30;99.90;;;9.50;72.47;100578.75;5071708;28;20164;-59
2022/03/30 04:00:12;;;;;;;51.15;24.88;;;9.30;99.90;;;9.43;72.21;100568.22;5074599;28;20045;-59
2022/03/30 04:02:40;;;;;;;42.42;23.58;;;9.40;99.90;;;9.52;72.52;100584.03;5075675;28;20051;-60
2022/03/30 04:05:10;;;;;;;48.88;24.58;;;9.30;99.90;;;9.50;71.91;100576.13;5075829;28;20227;-59
2022/03/30 04:07:39;;;;;;;43.13;24.08;;;9.30;99.90;;;9.46;71.84;100557.66;5075860;28;20047;-59
2022/03/30 04:10:10;;;;;;;42.63;22.87;;;9.40;99.90;;;9.42;71.78;100575.28;5075946;28;20090;-59
2022/03/30 04:12:39;;;;;;;47.40;24.77;;;9.30;99.90;;;9.49;71.70;100573.47;5075371;28;20056;-59
2022/03/30 04:15:09;;;;;;;46.13;22.85;;;9.30;99.90;;;9.52;72.00;100570.84;5075517;28;20041;-59
2022/03/30 04:17:44;;;;;;;49.00;23.63;;;9.30;99.90;;;9.48;71.57;100566.44;5075379;28;20048;-59
2022/03/30 04:20:14;;;;;;;48.05;23.85;;;9.40;99.90;;;9.51;71.54;100575.22;5075021;28;20407;-60
2022/03/30 04:22:44;;;;;;;46.83;24.23;;;9.30;99.90;;;9.52;71.69;100566.44;5074995;28;20056;-60
2022/03/30 04:25:13;;;;;;;40.10;22.52;;;9.40;99.90;;;9.56;71.08;100554.09;5074959;28;20324;-59
2022/03/30 04:27:46;;;;;;;47.70;23.85;;;9.40;99.90;;;9.57;71.44;100562.00;5074771;28;20131;-60
2022/03/30 04:30:16;;;;;;;43.17;23.10;;;9.40;99.90;;;9.56;71.50;100562.88;5074784;28;20486;-59
2022/03/30 04:32:45;;;;;;;41.33;22.38;;;9.40;99.90;;;9.64;71.23;100568.13;5074770;28;20132;-59
2022/03/30 04:35:18;;;;;;;43.88;22.13;;;9.40;99.90;;;9.68;70.71;100560.16;5074638;28;20045;-59
2022/03/30 04:37:48;;;;;;;44.85;23.13;;;9.50;99.90;;;9.66;70.76;100558.41;5075228;28;20116;-59
2022/03/30 04:40:16;;;;;;;51.05;23.85;;;9.50;99.90;;;9.67;70.43;100549.63;5073758;28;20048;-60
2022/03/30 04:42:44;;;;;;;50.08;23.75;;;9.50;99.90;;;9.65;70.42;100543.47;5075101;28;20072;-59
2022/03/30 04:45:13;;;;;;;46.53;24.52;;;9.50;99.90;;;9.66;70.61;100546.09;5074670;28;20607;-60
2022/03/30 04:47:41;;;;;;;47.58;23.52;;;9.50;99.90;;;9.69;70.45;100545.22;5074600;28;20036;-60
2022/03/30 04:50:11;;;;;;;48.78;22.95;;;9.50;99.90;;;9.69;69.91;100543.44;5074490;28;20048;-60
2022/03/30 04:52:40;;;;;;;49.30;24.13;;;9.50;99.90;;;9.71;70.32;100543.44;5074488;28;20072;-59
2022/03/30 04:55:11;;;;;;;46.25;23.73;;;9.50;99.90;;;9.73;69.91;100542.56;5074513;28;20052;-60
2022/03/30 04:57:41;;;;;;;46.55;23.70;;;9.50;99.90;;;9.72;70.02;100553.97;5074310;28;20041;-59
2022/03/30 05:00:12;;;;;;;45.30;23.25;;;9.50;99.90;;;9.70;69.85;100542.56;5074489;28;20538;-60
2022/03/30 05:02:41;;;;;;;46.60;24.35;;;9.50;99.90;;;9.66;70.35;100546.09;5074076;28;20482;-59
2022/03/30 05:05:10;;;;;;;43.58;22.70;;;9.50;99.90;;;9.61;70.26;100541.72;5073933;28;20052;-59
2022/03/30 05:07:40;;;;;;;42.85;23.73;;;9.40;99.90;;;9.61;70.23;100545.25;5074277;28;20048;-59
2022/03/30 05:10:14;;;;;;;40.28;24.55;;;9.40;99.90;;;9.58;70.50;100545.25;5106327;28;20449;-59
2022/03/30 05:12:43;;;;;;;40.00;23.58;;;9.40;99.90;;;9.56;70.60;100551.44;5073873;28;20490;-59
2022/03/30 05:15:12;;;;;;;44.47;24.52;;;9.40;99.90;;;9.46;70.49;100528.63;5073832;28;20032;-59
2022/03/30 05:17:44;;;;;;;43.90;24.65;;;9.30;99.90;;;9.56;70.13;100544.38;5074107;28;20509;-58
2022/03/30 05:20:14;;;;;;;46.30;25.73;;;9.40;99.90;;;9.56;70.02;100540.88;5074137;28;20055;-58
2022/03/30 05:22:43;;;;;;;47.47;25.77;;;9.40;99.90;;;9.55;70.29;100542.66;5073702;28;20510;-58
2022/03/30 05:25:15;;;;;;;50.25;24.95;;;9.40;99.90;;;9.53;70.25;100546.16;5073782;28;20383;-58
2022/03/30 05:27:43;;;;;;;42.58;23.50;;;9.30;99.90;;;9.53;70.30;100544.41;5074120;28;20041;-58
2022/03/30 05:30:13;;;;;;;49.97;24.85;;;9.30;99.90;;;9.48;70.79;100540.06;5073690;28;20068;-58
2022/03/30 05:32:45;;;;;;;46.33;22.92;;;9.30;99.90;;;9.39;70.49;100521.63;5074310;28;20143;-58
2022/03/30 05:35:15;;;;;;;45.33;25.67;;;9.40;99.90;;;9.30;70.52;100506.72;5073657;28;20067;-58
2022/03/30 05:37:47;;;;;;;55.10;24.80;;;9.30;99.90;;;9.58;70.23;100544.41;5073924;28;20094;-58
2022/03/30 05:40:18;;;;;;;42.40;23.90;;;9.40;99.90;;;9.52;70.55;100542.69;5089589;28;20478;-58
2022/03/30 05:42:47;;;;;;;44.17;23.85;;;9.30;99.90;;;9.53;70.69;100536.50;5074117;28;20441;-58
2022/03/30 05:45:15;;;;;;;48.65;23.90;;;9.40;99.90;;;9.55;70.35;100532.09;5072592;28;20557;-58
2022/03/30 05:47:44;;;;;;;52.17;24.33;;;9.40;99.90;;;9.57;70.56;100532.06;5073849;28;20049;-58
2022/03/30 05:50:12;;;;;;;41.00;23.98;;;9.40;99.90;;;9.54;70.56;100529.47;5073763;28;20044;-58
2022/03/30 05:52:41;;;;;;;45.38;24.63;;;9.40;99.90;;;9.49;70.46;100526.84;5073340;28;20056;-58
2022/03/30 05:55:10;;;;;;;47.40;25.20;;;9.30;99.90;;;9.56;71.03;100536.47;5105847;28;20080;-58
2022/03/30 05:57:40;;;;;;;43.40;24.50;;;9.40;99.90;;;9.57;70.81;100540.00;5072902;28;20124;-59
2022/03/30 06:00:10;;;;;;;40.22;24.15;;;9.40;99.90;;;9.59;70.72;100544.38;5073289;28;20128;-60
2022/03/30 06:02:42;;;;;;;40.40;23.15;;;9.40;99.90;;;9.74;70.57;100544.28;5073143;28;20064;-59
2022/03/30 06:05:11;;;;;;;53.20;24.88;;;9.50;99.90;;;9.84;70.30;100531.91;5073088;28;20045;-59
2022/03/30 06:07:40;;;;;;;48.17;24.48;;;9.60;99.90;;;9.95;70.08;100544.13;5072743;28;20421;-59
2022/03/30 06:10:10;;;;;;;44.50;24.75;;;9.80;99.90;;;9.92;69.79;100520.41;5073017;28;20044;-59
2022/03/30 06:12:39;;;;;;;48.22;23.85;;;9.80;99.90;;;10.11;69.40;100544.06;5072748;28;20092;-59
2022/03/30 06:15:10;;;;;;;49.77;25.93;;;9.90;99.90;;;10.24;69.07;100546.59;5072716;28;20422;-59
2022/03/30 06:17:38;;;;;;;38.85;23.10;;;10.00;99.90;;;10.25;68.61;100551.00;5088250;28;20049;-59
2022/03/30 06:20:08;;;;;;;42.03;24.35;;;10.00;99.90;;;10.42;68.54;100553.47;5072697;28;20048;-59
2022/03/30 06:22:37;;;;;;;42.43;24.73;;;10.20;99.90;;;10.57;68.26;100555.97;5071511;28;20456;-59
2022/03/30 06:25:07;;;;;;;39.25;23.48;;;10.30;99.90;;;10.70;67.81;100561.13;5072514;28;20064;-59
2022/03/30 06:27:35;;;;;;;47.10;24.85;;;10.40;99.90;;;10.89;67.42;100559.19;5072572;28;20118;-63
2022/03/30 06:30:07;;;;;;;46.88;24.42;;;10.60;99.90;;;11.00;67.04;100551.13;5071259;28;20504;-59
2022/03/30 06:32:36;;;;;;;37.78;22.73;;;10.70;99.90;;;11.16;66.28;100556.25;5072356;28;20498;-60
2022/03/30 06:35:12;;;;;;;42.20;23.38;;;10.90;99.90;;;11.22;65.78;100558.81;5072662;28;20076;-62
2022/03/30 06:37:40;;;;;;;46.80;25.83;;;11.00;99.90;;;11.20;66.39;100555.31;5072257;28;20055;-60
2022/03/30 06:40:11;;;;;;;41.40;23.95;;;10.90;99.90;;;11.05;67.07;100554.59;5072249;28;20373;-59
2022/03/30 06:42:39;;;;;;;43.05;22.98;;;10.80;99.90;;;10.87;66.51;100553.94;5072571;28;20130;-62
2022/03/30 06:45:11;;;;;;;43.13;23.83;;;10.70;99.90;;;10.46;68.08;100549.91;5072155;28;20140;-59
2022/03/30 06:47:40;;;;;;;46.75;25.00;;;10.30;99.90;;;10.21;68.92;100538.69;5072703;28;20122;-63
2022/03/30 06:50:09;;;;;;;41.92;22.75;;;10.00;99.90;;;10.35;68.42;100551.78;5072290;28;20105;-60
2022/03/30 06:52:37;;;;;;;43.63;23.33;;;10.00;99.90;;;10.47;68.32;100552.53;5104882;28;20110;-60
2022/03/30 06:55:08;;;;;;;43.15;23.48;;;10.10;99.90;;;9.85;70.26;100560.94;5072515;28;20417;-60
2022/03/30 06:57:37;;;;;;;43.28;23.85;;;9.60;99.90;;;9.91;70.65;100534.47;5072256;28;20064;-59
2022/03/30 07:00:07;;;;;;;50.75;24.02;;;9.70;99.90;;;9.89;71.00;100557.38;5072285;28;20074;-60
2022/03/30 07:02:37;;;;;;;41.78;23.33;;;9.60;99.90;;;10.16;70.67;100555.47;5072299;28;20401;-59
2022/03/30 07:05:07;;;;;;;42.65;24.55;;;9.80;99.90;;;10.40;70.19;100555.25;5072264;28;20044;-61
2022/03/30 07:10:23;;;;;;;52.92;24.27;;;10.10;99.90;;;10.53;70.21;100547.19;5071865;28;20098;-60
2022/03/30 07:12:53;;;;;;;43.03;23.15;;;10.20;99.90;;;10.18;69.56;100546.63;5072236;28;20398;-61
2022/03/30 07:15:22;;;;;;;52.60;24.60;;;10.00;99.90;;;10.07;70.56;100544.94;5087752;28;20079;-59
2022/03/30 07:17:55;;;;;;;47.08;24.27;;;9.90;99.90;;;9.59;72.35;100538.22;5071682;28;20064;-61
2022/03/30 07:20:30;;;;;;;45.80;25.05;;;9.40;99.90;;;9.54;74.17;100543.50;5071775;28;20143;-59
2022/03/30 07:22:59;;;;;;;52.22;26.45;;;9.20;99.90;;;9.79;74.41;100531.06;5072001;28;20040;-59
2022/03/30 07:25:28;;;;;;;48.97;26.20;;;9.40;99.90;;;10.21;72.24;100536.06;5071624;28;20036;-60
2022/03/30 07:27:59;;;;;;;51.47;25.17;;;9.70;99.90;;;10.61;71.71;100537.44;5071936;28;20049;-60
2022/03/30 07:30:28;;;;;;;;;;;10.10;99.90;;;10.27;70.68;100543.94;5072448;28;20060;-60
2022/03/30 07:32:58;;;;;;;50.35;25.58;;;10.10;99.90;;;9.98;72.29;100541.50;5071977;28;19960;-61
2022/03/30 07:35:32;;;;;;;47.58;26.65;;;9.80;99.90;;;9.95;72.67;100544.13;5071492;28;20044;-61
2022/03/30 07:38:02;;;;;;;47.40;26.35;;;9.70;99.90;;;9.70;73.86;100537.28;5071774;28;20054;-63
2022/03/30 07:40:31;;;;;;;49.90;26.67;;;9.40;99.90;;;10.08;73.25;100533.50;5071625;28;20057;-61
2022/03/30 07:43:00;;;;;;;48.13;25.33;;;9.70;99.90;;;10.28;72.52;100532.44;5071786;28;20063;-60
2022/03/30 07:45:29;;;;;;;44.63;26.27;;;9.90;99.90;;;9.84;72.71;100534.53;5071708;28;20049;-61
2022/03/30 07:47:59;;;;;;;50.08;25.48;;;9.70;99.90;;;9.84;72.61;100530.13;5071381;28;20051;-62
2022/03/30 07:50:28;;;;;;;44.95;25.98;;;9.60;99.90;;;9.69;73.20;100532.88;5071491;28;20115;-58
2022/03/30 07:52:56;;;;;;;49.00;25.60;;;9.60;99.90;;;9.99;73.47;100532.66;5071565;28;20044;-59
2022/03/30 07:55:25;;;;;;;47.08;26.88;;;9.60;99.90;;;10.36;72.36;100540.31;5071810;28;20102;-60
2022/03/30 07:57:54;;;;;;;52.42;26.80;;;10.00;99.90;;;10.45;71.99;100533.16;5071029;28;20044;-60
2022/03/30 08:00:24;;;;;;;44.80;25.17;;;10.10;99.90;;;10.72;70.63;100532.03;5071430;28;20059;-60
2022/03/30 08:02:52;;;;;;;43.97;25.00;;;10.50;99.90;;;10.28;71.91;100531.59;5071153;28;20098;-59
2022/03/30 08:05:22;;;;;;;44.33;24.73;;;10.20;99.90;;;10.80;71.77;100536.34;5071400;28;20048;-59
2022/03/30 08:07:50;;;;;;;40.50;24.03;;;10.40;99.90;;;11.62;70.62;100530.91;5071425;28;20044;-59
2022/03/30 08:10:19;;;;;;;37.70;22.70;;;11.10;99.90;;;11.49;68.62;100533.75;5071431;28;20049;-61
2022/03/30 08:12:48;;;;;;;40.55;22.58;;;11.30;99.90;;;11.34;68.78;100531.31;5071473;28;20044;-62
2022/03/30 08:15:17;;;;;;;34.50;21.67;;;11.20;99.90;;;11.39;68.73;100487.97;5071417;28;20083;-61
2022/03/30 08:17:46;;;;;;;36.53;21.17;;;11.30;99.90;;;11.37;66.57;100534.78;5070977;28;20045;-60
2022/03/30 08:22:25;;;;;;;33.10;21.02;;;11.40;99.90;;;11.00;69.13;100528.19;5071005;28;20387;-60
2022/03/30 08:23:04;;;;;;;32.97;20.75;;;10.80;99.90;;;11.16;68.27;100531.53;5071629;28;20052;-61
2022/03/30 08:25:34;;;;;;;32.20;19.83;;;10.90;99.90;;;11.82;67.93;100524.47;5071405;28;20075;-58
2022/03/30 08:28:04;;;;;;;29.75;17.63;;;11.40;99.90;;;12.12;64.43;100518.69;5071219;28;20450;-63
2022/03/30 08:30:32;;;;;;;33.50;19.95;;;11.80;99.90;;;12.21;63.68;100519.44;5071632;28;20048;-59
2022/03/30 08:33:02;;;;;;;392.42;261.73;;;12.00;99.90;;;12.77;63.85;100529.03;5070971;28;20351;-59
2022/03/30 08:35:32;;;;;;;71.70;43.60;;;12.40;99.90;;;13.33;63.13;100528.81;5071252;28;20044;-60
2022/03/30 08:38:01;;;;;;;53.53;34.33;;;13.00;99.90;;;13.80;61.53;100530.41;5071087;28;20115;-61
2022/03/30 08:40:31;;;;;;;66.80;38.40;;;13.50;99.90;;;14.04;60.10;100518.31;5071247;28;20131;-61
2022/03/30 08:43:00;;;;;;;32.63;21.57;;;13.80;99.90;;;14.29;59.35;100519.50;5070990;28;20394;-58
2022/03/30 08:45:28;;;;;;;25.27;18.65;;;14.10;99.90;;;14.23;58.53;100519.63;5071114;28;20083;-59
2022/03/30 08:47:56;;;;;;;34.90;18.83;;;14.10;99.90;;;14.03;58.12;100520.09;5074387;28;20096;-60
2022/03/30 08:50:25;;;;;;;30.77;21.00;;;14.00;99.90;;;14.05;59.10;100520.09;5074619;28;20044;-59
2022/03/30 08:52:55;;;;;;;33.75;19.35;;;13.90;99.90;;;14.07;59.07;100511.13;5074357;28;20075;-62
2022/03/30 08:55:24;;;;;;;35.10;20.85;;;14.00;99.90;;;14.11;59.67;100510.16;5074500;28;20049;-59
2022/03/30 08:57:54;;;;;;;29.55;19.17;;;14.00;99.90;;;14.07;59.24;100515.59;5074327;28;20102;-60
2022/03/30 09:00:24;;;;;;;32.13;20.80;;;14.00;99.90;;;14.12;59.54;100514.56;5107645;28;20057;-60
2022/03/30 09:03:00;;;;;;;30.52;19.80;;;14.00;99.90;;;14.15;59.60;100479.06;5074699;28;20036;-59
2022/03/30 09:05:31;;;;;;;29.70;19.50;;;14.20;99.90;;;14.41;58.80;100509.44;5074772;28;20047;-60
2022/03/30 09:08:11;;;;;;;18.17;13.50;;;14.30;99.90;;;13.46;60.13;100502.84;5074270;28;20055;-60
2022/03/30 09:10:42;;;;;;;17.25;13.32;;;13.70;99.90;;;12.90;64.12;100503.13;5074422;28;20126;-58
2022/03/30 09:13:14;;;;;;;18.70;12.02;;;12.80;99.90;;;12.24;63.04;100489.31;5074238;28;20115;-60
2022/03/30 09:15:43;;;;;;;21.75;11.52;;;12.40;99.90;;;12.73;63.08;100492.84;5072813;28;20087;-61
2022/03/30 09:18:14;;;;;;;17.88;12.25;;;12.50;99.90;;;12.86;63.50;100494.34;5074067;28;20032;-63
2022/03/30 09:20:46;;;;;;;17.25;12.32;;;12.60;99.90;;;12.76;63.83;100492.78;5073915;28;20147;-62
2022/03/30 09:23:22;;;;;;;17.00;12.18;;;12.50;99.90;;;13.12;63.51;100478.81;5073940;28;20051;-62
2022/03/30 09:25:51;;;;;;;20.10;12.65;;;12.90;99.90;;;12.87;62.26;100402.31;5074068;28;20123;-62
2022/03/30 09:28:23;;;;;;;20.80;11.40;;;13.10;99.90;;;13.35;61.69;100499.56;5074058;28;20091;-62
2022/03/30 09:30:53;;;;;;;17.08;11.35;;;13.20;99.90;;;13.74;62.28;100489.81;5073869;28;20044;-63
2022/03/30 09:33:24;;;;;;;13.27;10.75;;;13.50;99.90;;;13.62;62.13;100480.34;5073750;28;20119;-61
2022/03/30 09:35:53;;;;;;;15.00;10.52;;;13.50;99.90;;;13.77;61.47;100484.41;5073669;28;20532;-61
2022/03/30 09:38:23;;;;;;;15.25;11.13;;;13.60;99.90;;;13.86;60.50;100471.78;5073486;28;20036;-61
2022/03/30 09:40:56;;;;;;;14.27;10.43;;;13.70;99.90;;;13.99;59.90;100481.22;5072475;28;20439;-61
2022/03/30 09:43:27;;;;;;;14.52;10.70;;;13.80;99.90;;;12.31;63.11;100472.41;5073846;28;20064;-62
2022/03/30 09:46:08;;;;;;;15.57;11.55;;;12.60;99.90;;;12.41;63.50;100464.25;5073666;28;20041;-61
2022/03/30 09:48:40;;;;;;;18.25;11.40;;;12.50;99.90;;;13.04;62.95;100483.41;5073561;28;20040;-61
2022/03/30 09:51:09;;;;;;;17.15;11.50;;;12.70;99.90;;;13.36;62.58;100478.25;5074111;28;20040;-57
2022/03/30 09:53:38;;;;;;;14.38;11.30;;;13.00;99.90;;;13.59;61.55;100481.28;5073698;28;20093;-57
2022/03/30 09:56:10;;;;;;;15.27;11.02;;;13.30;99.90;;;13.48;60.68;100478.00;5073564;28;20567;-56
2022/03/30 09:58:41;;;;;;;15.65;10.70;;;13.30;99.90;;;13.86;60.40;100473.59;5072943;28;20082;-57
2022/03/30 10:01:20;;;;;;;16.27;10.77;;;13.50;99.90;;;14.03;59.19;100474.03;5073544;28;20131;-57
2022/03/30 10:03:52;;;;;;;17.80;11.23;;;13.90;99.90;;;12.03;62.58;100464.06;5073169;28;20413;-56
2022/03/30 10:06:23;;;;;;;13.40;10.38;;;12.30;99.90;;;12.01;65.43;100427.88;5073281;28;20048;-56
2022/03/30 10:08:52;;;;;;;17.17;12.05;;;11.90;99.90;;;13.02;63.48;100460.41;5073222;28;20490;-56
2022/03/30 10:11:22;;;;;;;16.58;11.38;;;12.60;99.90;;;12.68;64.26;100463.72;5073037;28;20100;-56
2022/03/30 10:13:54;;;;;;;15.63;11.93;;;12.40;99.90;;;12.47;63.00;100458.84;5073180;28;20032;-56
2022/03/30 10:16:40;;;;;;;13.77;11.25;;;12.30;99.90;;;13.15;62.22;100460.16;5073058;28;20048;-56
2022/03/30 10:19:09;;;;;;;18.88;12.23;;;12.80;99.90;;;13.24;60.14;100459.09;5072914;28;20060;-55
2022/03/30 10:21:47;;;;;;;16.20;12.63;;;13.00;99.90;;;13.46;59.73;100463.88;5072688;28;20072;-55
2022/03/30 10:24:42;;;;;;;17.63;12.73;;;13.30;99.90;;;13.95;58.80;100468.03;5072825;28;20047;-56
2022/03/30 10:27:18;;;;;;;17.65;12.95;;;13.60;99.90;;;13.88;58.43;100466.44;5072615;28;20110;-56